x

9442396 - La Push, Wa (lapw1) Weather Station

10:36 - Fri 26th Aug 2016 All times are PDT. -7 hours from GMT.

  • Wind
    2mph, 3mph gusts
  • Sea Temp 48°f
  • Aire Temp 57°f
  • Sea Pressure 1010.9mb
  • 9442396 - La Push, Wa
  • 9442396 - La Push, Wa

More Historic Weather Station data

Upgrade to MSW Pro to gain access to the past 30 days of data for over 8000 Wavebouys and Weather Stations around the globe.

Join Pro

Comparision Forecast

View Surf forecast
   
vie 08/26 10:36 2 3 mph 1010.9mb 48f 57f
10:30 2 3 mph 1010.9mb 48f 57f
10:24 2 3 mph 1011mb 48f 58f
10:18 2 3 mph 1011mb 48f 58f
10:12 2
mph
1010.8mb 48f 58f
10:06 1 2 mph 1010.8mb 48f 58f
10:00  -  2 mph 1010.8mb 48f 58f
9:36 3
mph
1011.2mb 48f 57f
9:30 2 3 mph 1011.2mb 48f 57f
9:24 3
mph
1011.3mb 48f 57f
9:18 2 3 mph 1011.4mb 48f 58f
9:12 3 5 mph 1011.3mb 48f 58f
9:06 1 2 mph 1011.2mb 48f 58f
9:00 2
mph
1011.2mb 48f 58f
8:36 2 3 mph 1011mb 48f 60f
8:30 2 3 mph 1011mb 48f 60f
8:24 2
mph
1010.8mb 48f 60f
8:18 2 3 mph 1010.8mb 48f 60f
8:12 2 3 mph 1010.9mb 48f 60f
8:06 2 3 mph 1010.9mb 47f 60f
8:00 1 2 mph 1010.9mb 48f 60f
7:36 1 2 mph 1011mb 48f 62f
7:30 1 2 mph 1011mb 47f 62f
7:24 1 2 mph 1011.1mb 47f 63f
7:18  -  1 mph 1011.1mb 48f 63f
7:12  -  1 mph 1011.2mb 47f 63f
7:06  -  2 mph 1011.3mb 47f 62f
7:00 1 2 mph 1011.4mb 47f 61f
6:36 6 7 mph 1011.6mb 48f 61f
6:30 7 8 mph 1011.7mb 47f 62f
6:24 5 6 mph 1011.8mb 47f 62f
6:18 3 5 mph 1011.7mb 47f 62f
6:12 3 6 mph 1011.8mb 47f 61f
6:06 5
mph
1011.9mb 47f 62f
6:00 3 5 mph 1011.7mb 47f 61f
5:36 2 3 mph 1011.9mb 47f 62f
5:30 2 5 mph 1011.9mb 48f 61f
5:24 3 5 mph 1012mb 47f 62f
5:18 2 5 mph 1012mb 47f 62f
5:12 5 6 mph 1012.2mb 47f 62f
5:06 5 6 mph 1012.2mb 47f 62f
5:00 5 6 mph 1012.1mb 47f 62f
4:36 3 5 mph 1012.1mb 47f 63f
4:30 3 5 mph 1012.2mb 47f 63f
4:24 3 5 mph 1012.2mb 47f 62f
4:18 3 5 mph 1012.3mb 48f 62f
4:12 5 6 mph 1012.4mb 48f 62f
4:06 3 5 mph 1012.4mb 48f 62f
4:00 5
mph
1012.5mb 48f 62f
3:36 3 6 mph 1012.8mb 48f 62f
3:30 3 5 mph 1012.8mb 49f 61f
3:24 5 6 mph 1012.9mb 49f 62f
3:18 5 6 mph 1012.9mb 49f 62f
3:12 3 6 mph 1013mb 49f 61f
3:06 3 5 mph 1013mb 49f 61f
3:00 3 6 mph 1013.1mb 49f 61f
2:36 5 6 mph 1013.4mb 49f 61f
2:30 3 5 mph 1013.4mb 49f 61f
2:24 3 5 mph 1013.4mb 49f 61f
2:18 3 6 mph 1013.5mb 49f 61f
2:12 5 6 mph 1013.5mb 49f 61f
2:06 5 6 mph 1013.5mb 48f 62f
2:00 5 6 mph 1013.4mb 48f 62f
1:36 5 6 mph 1013.6mb 48f 61f
1:30 5 6 mph 1013.7mb 49f 62f
1:24 6 7 mph 1013.7mb 48f 63f
1:18 5 6 mph 1013.6mb 48f 65f
1:12 2 6 mph 1013.4mb 48f 65f
1:06 3 6 mph 1013.5mb 48f 66f
1:00 3 5 mph 1013.4mb 48f 66f
12:36  -  1 mph 1013.7mb 48f 67f
12:30 2
mph
1013.7mb 47f 66f
12:24 1 2 mph 1013.6mb 48f 67f
12:18 2
mph
1013.7mb 47f 67f
12:12 2 3 mph 1013.6mb 47f 67f
12:06 2
mph
1013.6mb 47f 67f
12:00 2
mph
1013.6mb 47f 65f
11:36 1 3 mph 1013.7mb 47f 62f
11:30 3
mph
1013.7mb 47f 61f
11:24 3 5 mph 1013.7mb 47f 61f
11:18 3
mph
1013.7mb 47f 62f
11:12 2 3 mph 1013.7mb 47f 61f
11:06 1 2 mph 1013.6mb 47f 61f
11:00 2
mph
1013.7mb 47f 61f
10:36 1 3 mph 1013.7mb 47f 60f
10:30 2
mph
1013.6mb 47f 59f
10:24 2
mph
1013.6mb 47f 59f
10:18 1 2 mph 1013.7mb 47f 59f
10:12 1 2 mph 1013.8mb 47f 59f
10:06 1 2 mph 1013.8mb 47f 59f
10:00 2 3 mph 1013.7mb 47f 58f
9:36  -  5 mph 1013.6mb 47f 61f
9:30 6 7 mph 1013.6mb 47f 66f
9:24 3 5 mph 1013.7mb 47f 63f
9:18 2 6 mph 1013.8mb 48f 64f
9:12 5 7 mph 1013.9mb 47f 64f
9:06 3 6 mph 1013.9mb 47f 63f
9:00 3 6 mph 1013.9mb 47f 63f
8:36 6 7 mph 1013.9mb 48f 61f
8:30 3 6 mph 1014mb 48f 61f
8:24 6 7 mph 1013.9mb 48f 60f
8:18 1 6 mph 1014mb 48f 60f
8:12 3 7 mph 1013.9mb 48f 59f
8:06 6 9 mph 1013.9mb 48f 59f
8:00 7 9 mph 1013.9mb 48f 59f
7:36 6 11 mph 1014mb 48f 59f
7:30 8 10 mph 1013.9mb 48f 60f
7:24 6 9 mph 1013.9mb 48f 59f
7:18 6 9 mph 1013.9mb 48f 59f
7:12 7 9 mph 1013.8mb 48f 58f
7:06 5 8 mph 1013.8mb 48f 58f
7:00 7 9 mph 1013.7mb 48f 58f
6:36 6 8 mph 1013.8mb 48f 57f
6:30 7 9 mph 1013.8mb 48f 57f
6:24 6 7 mph 1013.8mb 48f 57f
6:18 5 7 mph 1013.9mb 48f 55f
6:12 1 5 mph 1014mb 49f 56f
6:06 3 6 mph 1013.9mb 49f 56f
6:00 5 6 mph 1013.8mb 49f 56f
5:36 2 5 mph 1013.8mb 49f 56f
5:30 3 6 mph 1013.8mb 49f 56f
5:24 2 3 mph 1013.8mb 49f 55f
5:18 3 5 mph 1013.8mb 49f 55f
5:12 2
mph
1013.8mb 49f 56f
5:06 1 3 mph 1013.9mb 49f 56f
5:00 3
mph
1013.9mb 49f 55f
4:36 1
mph
1013.9mb 49f 56f
4:30 2 6 mph 1014mb 49f 57f
4:24 6 7 mph 1014mb 50f 58f
4:18 3 5 mph 1013.9mb 50f 58f
4:12 3 5 mph 1013.8mb 50f 58f
4:06 3 7 mph 1013.8mb 50f 58f
4:00 6 7 mph 1013.9mb 51f 57f
3:36 3 7 mph 1013.9mb 51f 57f
3:30 5 7 mph 1013.9mb 52f 57f
3:24 5 6 mph 1014mb 52f 58f
3:18 5 6 mph 1014.1mb 52f 58f
3:12 5 6 mph 1014.1mb 52f 58f
3:06 5 6 mph 1014.1mb 53f 58f
3:00 5 6 mph 1014.2mb 53f 58f
2:36 3
mph
1014.4mb 55f 56f
2:30 2 3 mph 1014.4mb 55f 57f
2:24 2 5 mph 1014.5mb 55f 57f
2:18 3 6 mph 1014.6mb 56f 56f
2:12 3 5 mph 1014.6mb 56f 56f
2:06 5 6 mph 1014.6mb 56f 55f
2:00  -  1 mph 1014.7mb 57f 55f
1:36 2 3 mph 1014.8mb 56f 56f
1:30 2 3 mph 1014.9mb 56f 56f
1:24 2 3 mph 1014.9mb 57f 58f
1:18 2 3 mph 1014.9mb 57f 59f
1:12 1 2 mph 1015mb 57f 59f
1:06 2
mph
1014.9mb 56f 58f
1:00 2
mph
1015mb 56f 56f
12:36 1 2 mph 1015mb 54f 56f
12:30  -  2 mph 1015mb 52f 56f
12:24 1 2 mph 1015mb 51f 56f
12:18  -  mph 1015mb 51f 56f
12:12  -  1 mph 1015.1mb 50f 56f
12:06  -  1 mph 1015mb 50f 56f
12:00  -  1 mph 1015mb 50f 55f
jue 08/25 11:36  -  1 mph 1015.2mb 49f 55f
11:30  -  1 mph 1015.1mb 49f 56f
11:24  -  1 mph 1015.2mb 49f 55f
11:18  -  1 mph 1015.2mb 49f 55f
11:12 1 3 mph 1015.2mb 49f 55f
11:06 3 5 mph 1015.2mb 49f 55f
11:00 3
mph
1015.1mb 49f 55f
10:54 2 6 mph 1015.1mb 49f 55f
10:48 5 6 mph 1015.2mb 49f 56f
10:36 5 6 mph 1015.3mb 48f 56f
10:30 2 5 mph 1015.4mb 49f 55f
10:24 1 2 mph 1015.4mb 48f 55f
10:18 1 5 mph 1015.4mb 48f 56f
10:12 5 6 mph 1015.5mb 48f 56f
10:06 5 6 mph 1015.6mb 48f 56f
10:00 5 7 mph 1015.6mb 48f 57f
9:54 3 7 mph 1015.7mb 48f 57f
9:48 5 7 mph 1015.8mb 48f 58f
9:36  -  1 mph 1015.9mb 48f 58f
9:30  -  1 mph 1015.8mb 48f 58f
9:24  -  2 mph 1015.8mb 48f 58f
9:18 1 3 mph 1015.8mb 48f 58f
9:12 1 5 mph 1015.9mb 48f 59f
9:06 3 6 mph 1016mb 48f 60f
9:00 7 8 mph 1015.9mb 48f 60f
8:54 5 7 mph 1015.8mb 48f 60f
8:48 6 8 mph 1015.8mb 48f 61f
8:36  -  2 mph 1015.6mb 48f 62f
8:30 2 8 mph 1015.6mb 48f 61f
8:24 7 11 mph 1015.6mb 48f 61f
8:18 7 11 mph 1015.6mb 48f 62f
8:12 7 10 mph 1015.6mb 48f 63f
8:06 8 10 mph 1015.6mb 48f 63f
8:00 9 11 mph 1015.6mb 48f 62f
7:54 9 11 mph 1015.6mb 48f 62f
7:48 8 11 mph 1015.5mb 48f 63f
7:36 14 17 mph 1015.6mb 48f 61f
7:30 15 21 mph 1015.6mb 48f 62f
7:24 16 20 mph 1015.5mb 48f 63f
7:18 15 17 mph 1015.5mb 48f 64f
7:12 14 15 mph 1015.5mb 48f 63f
7:06 13 17 mph 1015.5mb 48f 66f
7:00 16 21 mph 1015.6mb 48f 66f
6:54 16 21 mph 1015.8mb 48f 65f
6:48 17 21 mph 1015.7mb 48f 64f
6:36 16 20 mph 1015.7mb 48f 63f
6:30 14 17 mph 1015.7mb 48f 63f
6:24 13 18 mph 1015.8mb 48f 64f
6:18 11 17 mph 1015.8mb 48f 63f
6:12 14 20 mph 1015.9mb 48f 62f
6:06 13 18 mph 1016mb 48f 62f
6:00 15 18 mph 1016mb 48f 62f
5:54 11 14 mph 1016mb 48f 63f
5:48 6 10 mph 1015.9mb 48f 64f
5:36 10 16 mph 1015.9mb 47f 66f
5:30 6 9 mph 1016.1mb 48f 64f
5:24 2 7 mph 1016.1mb 48f 66f
5:18 7 16 mph 1016.2mb 48f 66f
5:12 11 16 mph 1016.4mb 48f 66f
5:06 8 14 mph 1016.4mb 48f 66f
5:00 6 11 mph 1016.4mb 48f 65f
4:54 8 14 mph 1016.6mb 48f 64f
4:48 5 7 mph 1016.7mb 48f 66f
4:36 6 8 mph 1016.7mb 48f 65f
4:30 7 9 mph 1016.7mb 48f 66f
4:24 7 10 mph 1016.7mb 48f 68f
4:18 8 11 mph 1016.7mb 48f 68f
4:12 9 11 mph 1016.8mb 48f 67f
4:06 8 10 mph 1016.9mb 48f 67f
4:00 9 15 mph 1016.9mb 48f 66f
3:36 7 9 mph 1017mb 48f 66f
3:30 9 11 mph 1017.1mb 47f 67f
3:24 10 11 mph 1017.1mb 47f 65f
3:18 8 10 mph 1017.3mb 48f 64f
3:12 9 10 mph 1017.4mb 48f 64f
3:06 8 10 mph 1017.5mb 48f 64f
3:00 9 11 mph 1017.6mb 48f 65f
2:54 10 13 mph 1017.7mb 48f 64f
2:48 7 9 mph 1017.8mb 48f 64f
2:36 5 7 mph 1017.9mb 49f 63f
2:30 6 8 mph 1018mb 49f 63f
2:24 6 7 mph 1018.1mb 49f 62f
2:18 6 7 mph 1018.2mb 49f 61f
2:12 6 7 mph 1018.2mb 49f 61f
2:06 6 8 mph 1018.3mb 49f 62f
2:00 6 7 mph 1018.4mb 49f 62f
1:54 5 7 mph 1018.4mb 49f 61f
1:48 6 7 mph 1018.6mb 49f 60f
1:36 6
mph
1018.7mb 49f 61f
1:30 6
mph
1018.8mb 49f 60f
1:24 6
mph
1018.8mb 49f 60f
1:18 6
mph
1018.9mb 49f 60f
1:12 5 7 mph 1018.9mb 49f 60f
1:06 6 7 mph 1018.9mb 49f 60f
1:00 6 7 mph 1019mb 48f 60f
12:54 5 6 mph 1019.1mb 48f 61f
12:48 5 6 mph 1019mb 48f 61f
12:36 3 6 mph 1019.1mb 48f 61f
12:30 5
mph
1019.2mb 48f 62f
12:24 2 3 mph 1019.2mb 48f 60f
12:18 3 5 mph 1019.2mb 48f 61f
12:12 2 3 mph 1019.2mb 48f 60f
12:06 2 3 mph 1019.3mb 48f 60f
12:00 2 5 mph 1019.4mb 47f 60f
11:54 5 6 mph 1019.5mb 47f 60f
11:48 5 6 mph 1019.5mb 48f 60f
11:36 3
mph
1019.6mb 47f 60f
11:30 3 5 mph 1019.6mb 47f 60f
11:24 5
mph
1019.6mb 47f 60f
11:18 2 5 mph 1019.6mb 47f 61f
11:12 3 5 mph 1019.6mb 47f 61f
11:06 1 2 mph 1019.7mb 47f 60f
11:00 2 3 mph 1019.7mb 47f 60f
10:54 2
mph
1019.7mb 46f 60f
10:48 2 3 mph 1019.7mb 46f 60f
10:36 2
mph
1019.8mb 47f 59f
10:30 2
mph
1019.8mb 47f 58f
10:24 2 3 mph 1019.9mb 47f 59f
10:18 3 5 mph 1019.9mb 47f 60f
10:12 2
mph
1019.9mb 46f 60f
10:06 1 5 mph 1019.9mb 46f 59f
10:00 5
mph
1019.9mb 46f 61f
9:54 3 5 mph 1019.9mb 45f 59f
9:48 3 5 mph 1019.9mb 45f 60f
9:36 3 5 mph 1020mb 45f 61f
9:30 2 3 mph 1020mb 45f 64f
9:24 3 5 mph 1020.1mb 45f 67f
9:18 2 3 mph 1020.1mb 45f 66f
9:12  -  2 mph 1020.1mb 45f 64f
9:06 1 2 mph 1020.2mb 46f 65f
9:00 1 3 mph 1020.2mb 46f 64f
8:36 5 9 mph 1020.2mb 46f 61f
8:30 7 11 mph 1020.1mb 46f 60f
8:24 9 13 mph 1020.1mb 46f 60f
8:18 9 11 mph 1020mb 46f 60f
8:12 8 10 mph 1020mb 47f 59f
8:06 7 10 mph 1020mb 47f 59f
8:00 8 10 mph 1020mb 47f 58f
7:54 8 11 mph 1020mb 48f 58f
7:48 9 11 mph 1020mb 48f 58f
7:36 9 13 mph 1020.1mb 48f 57f
7:30 7 10 mph 1020.1mb 48f 57f
7:24 6 10 mph 1020.2mb 48f 57f
7:18 6 11 mph 1020.2mb 48f 57f
7:12 8 11 mph 1020.2mb 48f 57f
7:06 8 10 mph 1020.2mb 48f 56f
7:00 5 9 mph 1020.2mb 48f 56f
6:54 5 7 mph 1020.1mb 48f 56f
6:48 5 8 mph 1020.1mb 49f 55f
6:36 6 10 mph 1019.9mb 49f 56f
6:30 8 10 mph 1019.9mb 49f 56f
6:24 6 9 mph 1020mb 49f 56f
6:18 5 9 mph 1020mb 49f 56f
6:12 5 7 mph 1020mb 49f 56f
6:06 6 11 mph 1020mb 49f 56f
6:00 8 13 mph 1020mb 49f 56f
5:54 10 13 mph 1019.9mb 49f 57f
5:48 10 13 mph 1019.9mb 49f 57f
5:36 7 11 mph 1020mb 49f 58f
5:30 6 10 mph - - 58f
5:24 7 11 mph 1020mb 49f 58f
5:18 7 13 mph 1020mb 49f 57f
5:12 8 10 mph 1020.1mb 49f 56f
5:06 7 9 mph 1020.1mb 49f 57f
5:00 6 9 mph 1020.2mb 49f 57f
4:54 5 11 mph 1020.1mb 49f 58f
4:48 8 14 mph 1020.1mb 49f 59f
4:36 10 14 mph 1020mb 49f 58f
4:30 8 11 mph 1020.1mb 49f 58f
4:24 8 11 mph 1020.1mb 49f 58f
4:18 5 7 mph 1020.1mb 49f 58f
4:12 5 9 mph 1020.2mb 49f 58f
4:06 5 8 mph 1020.2mb 49f 58f
4:00 6 9 mph 1020.2mb 49f 59f
3:54 9 14 mph 1020.1mb 50f 60f
3:48 11 14 mph 1020mb 49f 59f
3:36 5 6 mph 1020.2mb 50f 56f
3:30 2 3 mph 1020.3mb 50f 57f
3:24 2 6 mph 1020.3mb 50f 58f
3:18 2 5 mph 1020.3mb 50f 57f
3:12  -  2 mph 1020.3mb 50f 56f
3:06  -  2 mph 1020.3mb 51f 56f
3:00 3 6 mph 1020.4mb 51f 56f
2:54 5 7 mph 1020.4mb 51f 56f
2:48 6 8 mph 1020.5mb 51f 60f
2:36 6 8 mph 1020.3mb 51f 60f
2:30 1 6 mph 1020.4mb 51f 60f
2:24 2 9 mph 1020.4mb 51f 61f
2:18 8 11 mph 1020.3mb 51f 61f
2:12 10 11 mph 1020.3mb 52f 61f
2:06 7 9 mph 1020.3mb 52f 61f
2:00 7 11 mph 1020.3mb 52f 62f
1:54 9 11 mph 1020.3mb 53f 62f
1:48 9 13 mph 1020.3mb 53f 62f
1:36 10 13 mph 1020.3mb 54f 61f
1:30 9 11 mph 1020.3mb 54f 61f
1:24 8 11 mph 1020.4mb 55f 62f
1:18 10 11 mph 1020.4mb 55f 62f
1:12 7 10 mph 1020.4mb 55f 62f
1:06 8 13 mph 1020.4mb 55f 62f
1:00 10 13 mph 1020.4mb 56f 62f
12:54 9 11 mph 1020.4mb 56f 62f
12:48 9 11 mph 1020.4mb 56f 62f
12:36 9 11 mph 1020.5mb 57f 62f
12:30 8 10 mph 1020.5mb 57f 62f
12:24 5 8 mph 1020.5mb 57f 62f
12:18 3 6 mph 1020.6mb 57f 62f
12:12 3 7 mph 1020.5mb 57f 63f
12:06 5 6 mph 1020.6mb 57f 63f
12:00 3 7 mph 1020.6mb 57f 62f
mié 08/24 11:54 3 6 mph 1020.5mb 57f 62f
11:48 2 9 mph 1020.5mb 57f 63f
11:36 5 6 mph 1020.5mb 56f 60f
11:30 1 2 mph 1020.5mb 56f 60f
11:24 1 2 mph 1020.6mb 55f 60f
11:18  -  1 mph 1020.6mb 53f 61f
11:12 1 2 mph 1020.7mb 52f 59f
11:06 1 3 mph 1020.7mb 52f 59f
11:00 2 3 mph 1020.8mb 51f 60f
10:54 1 5 mph 1020.7mb 51f 60f
10:48 1 6 mph 1020.7mb 51f 60f
10:36 3 5 mph 1020.8mb 50f 61f
10:30 2 5 mph 1020.8mb 50f 62f
10:24  -  2 mph 1020.8mb 50f 64f
10:18  -  2 mph 1020.8mb 50f 64f
10:12  -  2 mph 1021mb 50f 64f
10:06  -  3 mph 1021mb 50f 65f
10:00  -  3 mph 1021.1mb 49f 65f
9:54 2
mph
1021mb 49f 64f
9:48 2 3 mph 1021.1mb 49f 64f
9:36  -  6 mph 1021.1mb 49f 64f
9:30 5 8 mph 1021mb 49f 63f
9:24 6 7 mph 1021mb 49f 63f
9:18 3 5 mph 1021.1mb 49f 65f
9:12 3 6 mph 1021.1mb 49f 63f
9:06 3 6 mph 1021mb 49f 62f
9:00 5 6 mph 1020.9mb 49f 63f
8:54 1 5 mph 1020.9mb 49f 63f
8:48 2 7 mph 1021mb 49f 63f
8:36 7 9 mph 1020.8mb 49f 64f
8:30 8 14 mph 1020.8mb 49f 66f
8:24 11 16 mph 1020.7mb 49f 66f
8:18 15 16 mph 1020.7mb 49f 65f
8:12 14 17 mph 1020.7mb 49f 63f
8:06 15 20 mph 1020.7mb 49f 64f
8:00 16 18 mph 1020.8mb 49f 64f
7:54 14 17 mph 1020.7mb 49f 65f
7:48 14 22 mph 1020.7mb 49f 67f
7:36 15 17 mph 1020.7mb 49f 66f
7:30 15 17 mph 1020.8mb 49f 67f
7:24 15 17 mph 1020.7mb 49f 63f
7:18 16 20 mph 1020.8mb 49f 63f
7:12 17 20 mph 1020.8mb 49f 63f
7:06 16 20 mph 1020.8mb 49f 63f
7:00 16 22 mph 1020.8mb 49f 65f
6:54 17 22 mph 1020.9mb 49f 65f
6:48 18 22 mph 1020.9mb 49f 65f
6:36 18 22 mph 1020.9mb 49f 61f
6:30 17 22 mph 1020.9mb 49f 61f
6:24 16 20 mph 1021mb 49f 62f
6:18 15 18 mph 1021mb 49f 63f
6:12 16 20 mph 1020.9mb 49f 63f
6:06 16 20 mph 1020.9mb 49f 63f
6:00 14 17 mph 1020.9mb 48f 63f
5:54 13 18 mph 1020.9mb 48f 63f
5:48 14 17 mph 1020.9mb 49f 61f
5:36 11 16 mph 1021mb 49f 62f
5:30 14 20 mph 1021mb 49f 65f
5:24 17 20 mph 1021.1mb 49f 64f
5:18 16 18 mph 1021.2mb 49f 64f
5:12 13 16 mph 1021.2mb 48f 65f
5:06 16 21 mph 1021.2mb 48f 68f
5:00 17 22 mph 1021.2mb 48f 69f
4:54 18 23 mph 1021.2mb 48f 71f
4:48 18 23 mph 1021.2mb 48f 73f
4:36 17 21 mph 1021.2mb 48f 73f
4:30 17 22 mph 1021.3mb 48f 74f
4:24 18 22 mph 1021.3mb 48f 74f
4:18 17 21 mph 1021.3mb 48f 72f
4:12 18 21 mph 1021.4mb 48f 73f
4:06 18 21 mph 1021.4mb 48f 69f
4:00 17 22 mph 1021.4mb 48f 69f
3:54 17 20 mph 1021.5mb 48f 66f
3:48 15 20 mph 1021.5mb 48f 66f
3:36 10 16 mph 1021.6mb 48f 65f
3:30 8 15 mph 1021.7mb 48f 65f
3:24 14 21 mph 1021.8mb 48f 67f
3:18 16 21 mph 1021.7mb 48f 67f
3:12 16 22 mph 1021.7mb 48f 68f
3:06 18 23 mph 1021.8mb 48f 65f
3:00 16 21 mph 1021.9mb 48f 67f
2:54 14 20 mph 1021.9mb 48f 68f
2:48 10 14 mph 1021.9mb 49f 68f
2:36 10 14 mph 1022.1mb 48f 68f
2:30 5 8 mph 1022.1mb 48f 63f
2:24 5 6 mph 1022.3mb 48f 62f
2:18 3 8 mph 1022.3mb 49f 62f
2:12 3 6 mph 1022.5mb 49f 61f
2:06 3 6 mph 1022.6mb 49f 59f
2:00 6 7 mph 1022.6mb 49f 60f
1:54 3 6 mph 1022.7mb 48f 58f
1:48 3 5 mph 1022.8mb 49f 58f
1:36 6 7 mph 1022.8mb 49f 58f
1:30 5 6 mph 1022.9mb 49f 57f
1:24 5 6 mph 1023mb 49f 57f
1:18 5 6 mph 1023.1mb 49f 57f
1:12 3 6 mph 1023.1mb 49f 58f
1:06 5 6 mph 1023.1mb 49f 58f
1:00 5 6 mph 1023.2mb 49f 57f
12:54 3 5 mph 1023.2mb 49f 57f
12:48 3 5 mph 1023.3mb 49f 57f
12:36 5
mph
1023.4mb 49f 57f
12:30 3
mph
1023.5mb 49f 56f
12:24 3 6 mph 1023.5mb 49f 56f
12:18 5 6 mph 1023.6mb 49f 56f
12:12 5 6 mph 1023.7mb 49f 56f
12:06 6 8 mph 1023.8mb 49f 56f
12:00 6 8 mph 1023.8mb 49f 56f
11:54 7 8 mph 1023.9mb 49f 55f
11:48 7 8 mph 1023.9mb 49f 56f
11:36 3 6 mph 1023.8mb 49f 56f
11:30 5
mph
1023.9mb 49f 56f
11:24 5
mph
1023.8mb 49f 56f
11:18 5 6 mph 1023.8mb 49f 57f
11:12 3 5 mph 1023.8mb 49f 57f
11:06 3 5 mph 1023.8mb 49f 57f
11:00 3 5 mph 1023.8mb 49f 57f
10:36 3 6 mph 1023.9mb 49f 57f
10:30 5 6 mph 1023.9mb 49f 57f
10:24 5 6 mph 1023.8mb 49f 57f
10:18 5 6 mph 1023.8mb 49f 58f
10:12 5
mph
1023.8mb 49f 58f
10:06 3 5 mph 1023.8mb 49f 58f
10:00 5
mph
1023.8mb 49f 57f
9:54 3 5 mph 1023.7mb 49f 57f
9:36 2 5 mph 1023.7mb 49f 55f
9:30 2 5 mph 1023.8mb 48f 56f
9:24 1 3 mph 1023.8mb 48f 55f
9:18 3 6 mph 1023.9mb 48f 57f
9:12 3 5 mph 1023.8mb 48f 59f
9:06 3
mph
1023.8mb 48f 58f
9:00 3 5 mph 1023.7mb 48f 60f
8:54 2 7 mph 1023.6mb 48f 59f
8:48 6 7 mph 1023.6mb 48f 58f
8:36 2 5 mph 1023.6mb 48f 57f
8:30 3 5 mph 1023.6mb 48f 56f
8:24 3 5 mph 1023.6mb 48f 55f
8:18 2 3 mph 1023.7mb 48f 55f
8:12 2 3 mph 1023.7mb 49f 55f
8:06 2 3 mph 1023.7mb 48f 54f
8:00 1 3 mph 1023.7mb 48f 54f
7:54  -  2 mph 1023.7mb 48f 53f
7:48  -  2 mph 1023.7mb 48f 52f
7:36 2 6 mph 1023.7mb 49f 53f
7:30 3 6 mph 1023.7mb 49f 52f
7:24 2 5 mph 1023.6mb 49f 52f
7:18 5 6 mph 1023.6mb 49f 51f
7:12  -  5 mph 1023.5mb 49f 51f
7:06 5 8 mph 1023.4mb 49f 51f
7:00 6 8 mph 1023.3mb 49f 51f
6:54 3 7 mph 1023.3mb 49f 51f
6:48 2 6 mph 1023.3mb 49f 51f
6:36 2 5 mph 1023.2mb 49f 51f
6:30 3 6 mph 1023.2mb 49f 51f
6:24 5 6 mph 1023.3mb 49f 51f
6:18 3 5 mph 1023.3mb 49f 51f
6:12 3 6 mph 1023.2mb 49f 51f
6:06 3 6 mph 1023.2mb 49f 51f
6:00 3 6 mph 1023.2mb 49f 50f
5:54 1 7 mph 1023mb 49f 51f
5:48 2 7 mph 1023mb 49f 51f
5:36 3 6 mph 1022.9mb 49f 51f
5:30 5 8 mph 1022.9mb 49f 51f
5:24 5 7 mph 1022.8mb 49f 51f
5:18 3 6 mph 1022.8mb 49f 51f
5:12 3 7 mph 1022.8mb 49f 51f
5:06 3 6 mph 1022.8mb 50f 51f
5:00 3 7 mph 1022.9mb 49f 51f
4:54 2 5 mph 1022.9mb 49f 51f
4:48 2 5 mph 1022.9mb 50f 51f
4:36 6 7 mph 1022.8mb 49f 51f
4:30 5 7 mph 1022.8mb 50f 52f
4:24 6 7 mph 1022.8mb 49f 52f
4:18 5 6 mph 1022.8mb 50f 52f
4:12 5 6 mph 1022.8mb 50f 52f
4:06 5 7 mph 1022.8mb 50f 53f
4:00 5 7 mph 1022.8mb 50f 53f
3:54 5 9 mph 1022.7mb 50f 53f
3:48 6 7 mph 1022.7mb 50f 52f
3:36 2 3 mph 1022.7mb 49f 52f
3:30 2 3 mph 1022.7mb 49f 52f
3:24 2 3 mph 1022.7mb 49f 52f
3:18 3 5 mph 1022.7mb 49f 52f
3:12 5 6 mph 1022.7mb 49f 52f
3:06 5 7 mph 1022.7mb 49f 52f
3:00 5 8 mph 1022.7mb 49f 52f
2:54 5 9 mph 1022.7mb 50f 53f
2:48 6 8 mph 1022.6mb 50f 52f
2:36 5 6 mph 1022.7mb 50f 52f
2:30 3 5 mph 1022.7mb 50f 53f
2:24 2 5 mph 1022.7mb 50f 52f
2:18 3 5 mph 1022.7mb 50f 53f
2:12 5 6 mph 1022.8mb 51f 52f
2:06 2 5 mph 1022.8mb 51f 52f
2:00 2 3 mph 1022.7mb 51f 52f
1:54 1 2 mph 1022.7mb 51f 52f
1:48 2 3 mph 1022.8mb 51f 52f
1:36 3
mph
1022.8mb 52f 53f
1:30 3
mph
1022.8mb 52f 53f
1:24 3
mph
1022.8mb 52f 54f
1:18 2 3 mph 1022.9mb 52f 54f
1:12 2 3 mph 1022.9mb 52f 54f
1:06 2 3 mph 1022.9mb 53f 55f
1:00 2
mph
1022.9mb 53f 55f
12:54 1 2 mph 1022.9mb 53f 55f
12:48 2 3 mph 1023mb 54f 55f
12:36 2 5 mph 1023mb 55f 53f
12:30 3 5 mph 1023mb 55f 53f
12:24 5
mph
1022.9mb 56f 53f
12:18 2 3 mph 1023mb 56f 53f
12:12 1 3 mph 1023mb 56f 53f
12:06 2 3 mph 1023mb 57f 54f
12:00 2
mph
1023mb 57f 55f
mar 08/23 11:54  -  1 mph 1023mb 57f 55f
11:48  -  2 mph 1023mb 58f 55f
11:36 1 3 mph 1023.1mb 58f 55f
11:30 2
mph
1023.1mb 58f 55f
11:24  -  mph 1023.1mb 58f 55f
11:18  -  mph 1023.1mb 58f 55f
11:12  -  1 mph 1023mb 58f 55f
11:06 1 3 mph 1023mb 58f 55f
11:00 2 3 mph 1023mb 58f 55f
10:54 2 5 mph 1022.9mb 58f 55f
10:48 2 3 mph 1022.9mb 58f 55f
10:36  -  1 mph 1022.8mb 57f 56f
10:30  -  5 mph 1022.8mb 57f 56f
10:24  -  1 mph 1022.8mb 56f 56f
10:18  -  2 mph 1022.8mb 55f 56f
10:12  -  2 mph 1022.8mb 54f 56f
10:06  -  1 mph 1022.8mb 53f 56f
10:00 1 2 mph 1022.7mb 52f 57f
9:54 1 2 mph 1022.7mb 51f 57f
9:48  -  1 mph 1022.7mb 51f 57f
9:36 2 3 mph 1022.8mb 51f 56f
9:30 1 2 mph 1022.8mb 50f 56f
9:24  -  2 mph 1022.8mb 50f 57f
9:18 2 3 mph 1022.8mb 50f 57f
9:12 3 5 mph 1022.9mb 50f 57f
9:06 5
mph
1022.8mb 50f 58f
9:00  -  2 mph 1022.8mb 50f 58f
8:54  -  1 mph 1022.7mb 50f 58f
8:48  -  3 mph 1022.7mb 49f 59f
8:36 1 2 mph 1022.6mb 49f 58f
8:30 2 3 mph 1022.5mb 49f 59f
8:24 1 2 mph 1022.5mb 49f 61f
8:18 2 7 mph 1022.4mb 48f 61f
8:12 6 8 mph 1022.4mb 48f 60f
8:06 7 9 mph 1022.4mb 48f 59f
8:00 8 9 mph 1022.5mb 48f 60f
7:54 7 9 mph 1022.5mb 48f 60f
7:48 7 13 mph 1022.5mb 48f 59f
7:36 10 15 mph 1022.5mb 48f 59f
7:30 14 16 mph 1022.5mb 48f 59f
7:24 15 17 mph 1022.5mb 49f 59f
7:18 14 17 mph 1022.4mb 49f 59f
7:12 14 16 mph 1022.4mb 49f 59f
7:06 14 18 mph 1022.4mb 48f 59f
7:00 15 20 mph 1022.5mb 48f 59f
6:54 16 20 mph 1022.6mb 49f 59f
6:48 15 20 mph 1022.6mb 49f 59f
6:36 18 22 mph 1022.6mb 49f 58f
6:30 18 21 mph 1022.6mb 49f 58f
6:24 16 21 mph 1022.6mb 49f 58f
6:18 16 20 mph 1022.7mb 49f 58f
6:12 17 20 mph 1022.7mb 49f 58f
6:06 16 20 mph 1022.6mb 49f 58f
6:00 16 21 mph 1022.7mb 49f 58f
5:54 16 21 mph 1022.7mb 49f 58f
5:48 18 21 mph 1022.8mb 49f 58f
5:36 17 21 mph 1022.7mb 49f 58f
5:30 17 20 mph 1022.7mb 49f 58f
5:24 17 21 mph 1022.7mb 49f 58f
5:18 17 20 mph 1022.7mb 49f 58f
5:12 15 18 mph 1022.7mb 49f 57f
5:06 15 18 mph 1022.7mb 49f 57f
5:00 16 18 mph 1022.8mb 49f 57f
4:54 15 17 mph 1022.8mb 49f 57f
4:48 14 18 mph 1022.8mb 49f 57f
4:36 14 18 mph 1022.9mb 49f 57f
4:30 15 20 mph 1022.8mb 49f 57f
4:24 16 20 mph 1022.9mb 49f 57f
4:18 15 17 mph 1023mb 49f 57f
4:12 13 15 mph 1023mb 48f 57f
4:06 14 16 mph 1023mb 48f 57f
4:00 13 15 mph 1023mb 48f 57f
3:54 14 16 mph 1022.9mb 48f 56f
3:48 13 16 mph 1023mb 48f 56f
3:36 13 16 mph 1023mb 48f 56f
3:30 10 14 mph 1023.1mb 48f 56f
3:24 9 11 mph 1023.1mb 48f 56f
3:18 6 7 mph 1023.1mb 48f 57f
3:12 5 8 mph 1023.2mb 48f 56f
3:06 6 8 mph 1023.2mb 48f 56f
3:00 7 9 mph 1023.3mb 48f 56f
2:54 7 9 mph 1023.3mb 48f 56f
2:48 7 9 mph 1023.3mb 48f 55f
2:36 6 9 mph 1023.4mb 48f 55f
2:30 7 9 mph 1023.4mb 48f 55f
2:24 6 9 mph 1023.4mb 48f 55f
2:18 7 9 mph 1023.4mb 48f 55f
2:12 6 9 mph 1023.4mb 48f 55f
2:06 6 9 mph 1023.4mb 48f 55f
2:00 7 8 mph 1023.4mb 48f 55f
1:36 6 8 mph 1023.5mb 49f 54f
1:30 7 9 mph 1023.5mb 49f 53f
1:24 7 9 mph 1023.5mb 49f 54f
1:18 6 9 mph 1023.5mb 49f 53f
1:12 8 10 mph 1023.5mb 49f 53f
1:06 8 9 mph 1023.5mb 49f 53f
1:00 6 8 mph 1023.5mb 49f 54f
12:54 7 8 mph 1023.4mb 49f 53f
12:48 6 9 mph 1023.5mb 49f 53f
12:36 7 8 mph 1023.5mb 50f 54f
12:30 5 8 mph 1023.6mb 50f 54f
12:24 6 7 mph 1023.6mb 50f 54f
12:18 5 6 mph 1023.7mb 50f 53f
12:12 5 7 mph 1023.7mb 50f 52f
12:06 6 8 mph 1023.7mb 50f 52f
12:00 6 8 mph 1023.7mb 51f 52f
11:54 7 8 mph 1023.8mb 51f 52f
11:48 7
mph
1023.9mb 51f 51f
11:36 6 7 mph 1023.7mb 52f 51f
11:30 5 6 mph 1023.7mb 52f 52f
11:24 5 6 mph 1023.7mb 52f 52f
11:18 6 7 mph 1023.8mb 52f 51f
11:12 5 7 mph 1023.9mb 52f 51f
11:06 6 7 mph 1023.9mb 52f 51f
11:00 6 7 mph 1023.8mb 52f 51f
10:54 6 7 mph 1023.8mb 52f 51f
10:48 6 7 mph 1023.7mb 53f 52f
10:36 6 7 mph 1023.7mb 53f 52f
10:30 6 7 mph 1023.6mb 53f 51f
10:24 6
mph
1023.6mb 52f 51f
10:18 5 6 mph 1023.5mb 52f 52f
10:12 5
mph
1023.5mb 52f 52f
10:06 5 6 mph 1023.5mb 52f 52f
10:00 5
mph
1023.4mb 51f 52f
9:54 3 5 mph 1023.3mb 50f 52f
9:48 3 5 mph 1023.3mb 49f 51f
9:36 3 5 mph 1023.3mb 49f 52f
9:30 3 5 mph 1023.3mb 49f 52f
9:24 3
mph
1023.2mb 49f 52f
9:18 2 3 mph 1023.2mb 49f 52f
9:12 3 5 mph 1023.1mb 49f 51f
9:06 3 5 mph 1023.1mb 49f 51f
9:00 3 6 mph 1023.2mb 49f 52f
8:54 5 6 mph 1023.1mb 49f 52f
8:48 3 5 mph 1023mb 49f 52f
8:36  -  2 mph 1022.8mb 49f 53f
8:30 1 3 mph 1022.8mb 49f 52f
8:24 2 5 mph 1022.8mb 49f 52f
8:18 2 6 mph 1022.8mb 49f 51f
8:12 6
mph
1022.8mb 49f 50f
8:06 5 7 mph 1022.6mb 49f 50f
8:00 5 6 mph 1022.6mb 49f 50f
7:54 2 3 mph 1022.6mb 49f 50f
7:48  -  3 mph 1022.5mb 49f 49f
7:36  -  5 mph 1022.5mb 49f 49f
7:30  -  5 mph 1022.4mb 49f 48f
7:24 2 5 mph 1022.3mb 49f 48f
7:18 1 7 mph 1022.2mb 49f 47f
7:12 5 7 mph 1022.2mb 49f 47f
7:06 2 6 mph 1022.2mb 50f 47f
7:00 3 7 mph 1022.2mb 49f 47f
6:54 3 9 mph 1022.2mb 49f 47f
6:48 7 10 mph 1022mb 49f 47f
6:36 8 11 mph 1021.9mb 49f 47f